sensor_id;sensor_type;location;lat;lon;timestamp;P1;durP1;ratioP1;P2;durP2;ratioP2
13014;SDS011;6573;57.696;11.950;2022-08-07T00:02:10;16.87;;;3.77;;
13014;SDS011;6573;57.696;11.950;2022-08-07T00:04:58;17.07;;;3.10;;
13014;SDS011;6573;57.696;11.950;2022-08-07T00:07:30;15.43;;;3.40;;
13014;SDS011;6573;57.696;11.950;2022-08-07T00:10:08;10.13;;;3.10;;
13014;SDS011;6573;57.696;11.950;2022-08-07T00:12:55;14.20;;;3.77;;
13014;SDS011;6573;57.696;11.950;2022-08-07T00:15:27;12.73;;;2.90;;
13014;SDS011;6573;57.696;11.950;2022-08-07T00:18:12;11.20;;;3.43;;
13014;SDS011;6573;57.696;11.950;2022-08-07T00:20:45;12.90;;;2.80;;
13014;SDS011;6573;57.696;11.950;2022-08-07T00:23:16;11.50;;;3.23;;
13014;SDS011;6573;57.696;11.950;2022-08-07T00:25:49;21.43;;;3.37;;
13014;SDS011;6573;57.696;11.950;2022-08-07T00:28:28;12.33;;;2.80;;
13014;SDS011;6573;57.696;11.950;2022-08-07T00:31:00;6.83;;;2.30;;
13014;SDS011;6573;57.696;11.950;2022-08-07T00:33:42;12.77;;;3.30;;
13014;SDS011;6573;57.696;11.950;2022-08-07T00:36:13;11.40;;;3.40;;
13014;SDS011;6573;57.696;11.950;2022-08-07T00:38:42;13.53;;;3.10;;
13014;SDS011;6573;57.696;11.950;2022-08-07T00:41:12;11.20;;;2.90;;
13014;SDS011;6573;57.696;11.950;2022-08-07T00:43:44;15.63;;;2.87;;
13014;SDS011;6573;57.696;11.950;2022-08-07T00:46:28;13.83;;;3.33;;
13014;SDS011;6573;57.696;11.950;2022-08-07T00:48:58;15.43;;;3.33;;
13014;SDS011;6573;57.696;11.950;2022-08-07T00:51:29;12.37;;;2.73;;
13014;SDS011;6573;57.696;11.950;2022-08-07T00:54:18;14.37;;;3.07;;
13014;SDS011;6573;57.696;11.950;2022-08-07T00:56:49;17.63;;;3.63;;
13014;SDS011;6573;57.696;11.950;2022-08-07T00:59:19;13.73;;;2.77;;
13014;SDS011;6573;57.696;11.950;2022-08-07T01:02:01;17.13;;;3.10;;
13014;SDS011;6573;57.696;11.950;2022-08-07T01:04:52;9.87;;;2.00;;
13014;SDS011;6573;57.696;11.950;2022-08-07T01:07:24;12.30;;;3.13;;
13014;SDS011;6573;57.696;11.950;2022-08-07T01:09:55;12.37;;;2.90;;
13014;SDS011;6573;57.696;11.950;2022-08-07T01:12:39;15.97;;;3.20;;
13014;SDS011;6573;57.696;11.950;2022-08-07T01:15:19;9.77;;;2.80;;
13014;SDS011;6573;57.696;11.950;2022-08-07T01:18:09;16.17;;;3.20;;
13014;SDS011;6573;57.696;11.950;2022-08-07T01:20:44;17.27;;;3.47;;
13014;SDS011;6573;57.696;11.950;2022-08-07T01:23:26;14.60;;;3.23;;
13014;SDS011;6573;57.696;11.950;2022-08-07T01:26:05;14.23;;;3.77;;
13014;SDS011;6573;57.696;11.950;2022-08-07T01:28:37;10.33;;;3.50;;
13014;SDS011;6573;57.696;11.950;2022-08-07T01:31:13;12.93;;;3.60;;
13014;SDS011;6573;57.696;11.950;2022-08-07T01:33:45;11.50;;;3.30;;
13014;SDS011;6573;57.696;11.950;2022-08-07T01:36:22;11.20;;;3.70;;
13014;SDS011;6573;57.696;11.950;2022-08-07T01:39:00;11.80;;;3.50;;
13014;SDS011;6573;57.696;11.950;2022-08-07T01:41:35;10.57;;;3.23;;
13014;SDS011;6573;57.696;11.950;2022-08-07T01:44:25;13.00;;;3.37;;
13014;SDS011;6573;57.696;11.950;2022-08-07T01:46:54;15.30;;;3.80;;
13014;SDS011;6573;57.696;11.950;2022-08-07T01:49:26;12.90;;;3.57;;
13014;SDS011;6573;57.696;11.950;2022-08-07T01:51:57;12.23;;;3.50;;
13014;SDS011;6573;57.696;11.950;2022-08-07T01:54:34;15.00;;;3.60;;
13014;SDS011;6573;57.696;11.950;2022-08-07T01:57:07;13.43;;;3.87;;
13014;SDS011;6573;57.696;11.950;2022-08-07T01:59:51;12.17;;;3.43;;
13014;SDS011;6573;57.696;11.950;2022-08-07T02:02:22;8.50;;;3.10;;
13014;SDS011;6573;57.696;11.950;2022-08-07T02:05:17;11.13;;;3.30;;
13014;SDS011;6573;57.696;11.950;2022-08-07T02:08:10;15.30;;;3.03;;
13014;SDS011;6573;57.696;11.950;2022-08-07T02:10:42;9.73;;;2.90;;
13014;SDS011;6573;57.696;11.950;2022-08-07T02:13:21;12.20;;;3.60;;
13014;SDS011;6573;57.696;11.950;2022-08-07T02:16:11;12.63;;;3.80;;
13014;SDS011;6573;57.696;11.950;2022-08-07T02:18:54;11.77;;;3.40;;
13014;SDS011;6573;57.696;11.950;2022-08-07T02:21:24;8.67;;;3.10;;
13014;SDS011;6573;57.696;11.950;2022-08-07T02:24:14;14.77;;;4.10;;
13014;SDS011;6573;57.696;11.950;2022-08-07T02:26:46;12.73;;;3.77;;
13014;SDS011;6573;57.696;11.950;2022-08-07T02:29:17;8.43;;;3.77;;
13014;SDS011;6573;57.696;11.950;2022-08-07T02:31:48;7.90;;;3.50;;
13014;SDS011;6573;57.696;11.950;2022-08-07T02:34:20;17.30;;;3.70;;
13014;SDS011;6573;57.696;11.950;2022-08-07T02:36:49;12.50;;;3.33;;
13014;SDS011;6573;57.696;11.950;2022-08-07T02:39:18;7.97;;;2.90;;
13014;SDS011;6573;57.696;11.950;2022-08-07T02:42:09;9.00;;;3.53;;
13014;SDS011;6573;57.696;11.950;2022-08-07T02:44:42;14.13;;;3.43;;
13014;SDS011;6573;57.696;11.950;2022-08-07T02:47:15;11.87;;;3.83;;
13014;SDS011;6573;57.696;11.950;2022-08-07T02:50:04;12.43;;;4.10;;
13014;SDS011;6573;57.696;11.950;2022-08-07T02:52:36;10.77;;;3.40;;
13014;SDS011;6573;57.696;11.950;2022-08-07T02:55:16;11.23;;;3.70;;
13014;SDS011;6573;57.696;11.950;2022-08-07T02:58:10;10.43;;;3.80;;
13014;SDS011;6573;57.696;11.950;2022-08-07T03:00:41;6.93;;;3.40;;
13014;SDS011;6573;57.696;11.950;2022-08-07T03:03:13;13.13;;;3.57;;
13014;SDS011;6573;57.696;11.950;2022-08-07T03:05:48;12.87;;;4.30;;
13014;SDS011;6573;57.696;11.950;2022-08-07T03:08:19;9.40;;;3.20;;
13014;SDS011;6573;57.696;11.950;2022-08-07T03:10:54;8.77;;;3.40;;
13014;SDS011;6573;57.696;11.950;2022-08-07T03:13:25;4.00;;;2.67;;
13014;SDS011;6573;57.696;11.950;2022-08-07T03:16:04;12.33;;;3.40;;
13014;SDS011;6573;57.696;11.950;2022-08-07T03:18:35;8.17;;;3.33;;
13014;SDS011;6573;57.696;11.950;2022-08-07T03:21:09;20.27;;;3.70;;
13014;SDS011;6573;57.696;11.950;2022-08-07T03:23:44;10.97;;;3.43;;
13014;SDS011;6573;57.696;11.950;2022-08-07T03:26:34;13.43;;;3.47;;
13014;SDS011;6573;57.696;11.950;2022-08-07T03:29:20;11.53;;;4.00;;
13014;SDS011;6573;57.696;11.950;2022-08-07T03:31:52;11.10;;;3.10;;
13014;SDS011;6573;57.696;11.950;2022-08-07T03:34:24;6.93;;;3.23;;
13014;SDS011;6573;57.696;11.950;2022-08-07T03:36:55;11.07;;;3.10;;
13014;SDS011;6573;57.696;11.950;2022-08-07T03:39:25;12.03;;;2.80;;
13014;SDS011;6573;57.696;11.950;2022-08-07T03:42:19;14.53;;;3.53;;
13014;SDS011;6573;57.696;11.950;2022-08-07T03:44:49;8.07;;;2.90;;
13014;SDS011;6573;57.696;11.950;2022-08-07T03:47:23;11.37;;;3.00;;
13014;SDS011;6573;57.696;11.950;2022-08-07T03:49:55;11.43;;;2.83;;
13014;SDS011;6573;57.696;11.950;2022-08-07T03:52:26;10.87;;;3.10;;
13014;SDS011;6573;57.696;11.950;2022-08-07T03:54:56;7.47;;;2.63;;
13014;SDS011;6573;57.696;11.950;2022-08-07T03:57:33;15.60;;;3.33;;
13014;SDS011;6573;57.696;11.950;2022-08-07T04:00:25;13.70;;;3.30;;
13014;SDS011;6573;57.696;11.950;2022-08-07T04:03:01;12.30;;;2.80;;
13014;SDS011;6573;57.696;11.950;2022-08-07T04:05:30;7.17;;;2.57;;
13014;SDS011;6573;57.696;11.950;2022-08-07T04:08:07;8.33;;;2.67;;
13014;SDS011;6573;57.696;11.950;2022-08-07T04:10:37;7.00;;;2.63;;
13014;SDS011;6573;57.696;11.950;2022-08-07T04:13:09;6.40;;;2.53;;
13014;SDS011;6573;57.696;11.950;2022-08-07T04:15:42;13.83;;;3.10;;
13014;SDS011;6573;57.696;11.950;2022-08-07T04:18:14;9.20;;;3.07;;
13014;SDS011;6573;57.696;11.950;2022-08-07T04:21:04;8.30;;;2.77;;
13014;SDS011;6573;57.696;11.950;2022-08-07T04:23:34;7.20;;;2.60;;
13014;SDS011;6573;57.696;11.950;2022-08-07T04:26:27;8.00;;;2.80;;
13014;SDS011;6573;57.696;11.950;2022-08-07T04:28:57;11.33;;;2.93;;
13014;SDS011;6573;57.696;11.950;2022-08-07T04:31:31;8.30;;;2.47;;
13014;SDS011;6573;57.696;11.950;2022-08-07T04:34:24;6.83;;;2.60;;
13014;SDS011;6573;57.696;11.950;2022-08-07T04:37:01;6.57;;;2.60;;
13014;SDS011;6573;57.696;11.950;2022-08-07T04:39:33;6.00;;;2.47;;
13014;SDS011;6573;57.696;11.950;2022-08-07T04:42:13;10.37;;;2.93;;
13014;SDS011;6573;57.696;11.950;2022-08-07T04:44:42;6.90;;;2.53;;
13014;SDS011;6573;57.696;11.950;2022-08-07T04:47:30;6.60;;;2.40;;
13014;SDS011;6573;57.696;11.950;2022-08-07T04:50:30;6.93;;;2.30;;
13014;SDS011;6573;57.696;11.950;2022-08-07T04:53:06;8.93;;;2.67;;
13014;SDS011;6573;57.696;11.950;2022-08-07T04:56:04;9.03;;;2.90;;
13014;SDS011;6573;57.696;11.950;2022-08-07T04:59:04;7.47;;;3.20;;
13014;SDS011;6573;57.696;11.950;2022-08-07T05:02:00;5.37;;;2.27;;
13014;SDS011;6573;57.696;11.950;2022-08-07T05:04:39;9.00;;;3.10;;
13014;SDS011;6573;57.696;11.950;2022-08-07T05:07:16;8.37;;;2.67;;
13014;SDS011;6573;57.696;11.950;2022-08-07T05:10:03;6.53;;;2.67;;
13014;SDS011;6573;57.696;11.950;2022-08-07T05:12:41;9.03;;;3.00;;
13014;SDS011;6573;57.696;11.950;2022-08-07T05:15:21;6.20;;;3.03;;
13014;SDS011;6573;57.696;11.950;2022-08-07T05:17:55;6.23;;;2.70;;
13014;SDS011;6573;57.696;11.950;2022-08-07T05:20:37;9.67;;;2.90;;
13014;SDS011;6573;57.696;11.950;2022-08-07T05:23:09;11.60;;;3.00;;
13014;SDS011;6573;57.696;11.950;2022-08-07T05:25:41;11.10;;;3.20;;
13014;SDS011;6573;57.696;11.950;2022-08-07T05:28:34;6.70;;;3.03;;
13014;SDS011;6573;57.696;11.950;2022-08-07T05:31:06;10.77;;;2.87;;
13014;SDS011;6573;57.696;11.950;2022-08-07T05:33:41;9.10;;;2.90;;
13014;SDS011;6573;57.696;11.950;2022-08-07T05:36:31;6.03;;;3.17;;
13014;SDS011;6573;57.696;11.950;2022-08-07T05:39:04;8.77;;;2.97;;
13014;SDS011;6573;57.696;11.950;2022-08-07T05:41:54;11.80;;;3.33;;
13014;SDS011;6573;57.696;11.950;2022-08-07T05:44:30;5.67;;;2.77;;
13014;SDS011;6573;57.696;11.950;2022-08-07T05:47:07;10.17;;;3.23;;
13014;SDS011;6573;57.696;11.950;2022-08-07T05:49:45;7.40;;;3.50;;
13014;SDS011;6573;57.696;11.950;2022-08-07T05:52:18;9.17;;;2.90;;
13014;SDS011;6573;57.696;11.950;2022-08-07T05:54:58;12.23;;;3.23;;
13014;SDS011;6573;57.696;11.950;2022-08-07T05:57:36;10.47;;;3.00;;
13014;SDS011;6573;57.696;11.950;2022-08-07T06:00:10;9.20;;;3.10;;
13014;SDS011;6573;57.696;11.950;2022-08-07T06:02:42;8.07;;;2.80;;
13014;SDS011;6573;57.696;11.950;2022-08-07T06:05:15;8.83;;;3.00;;
13014;SDS011;6573;57.696;11.950;2022-08-07T06:07:56;7.80;;;2.93;;
13014;SDS011;6573;57.696;11.950;2022-08-07T06:10:46;7.77;;;2.90;;
13014;SDS011;6573;57.696;11.950;2022-08-07T06:13:20;6.30;;;2.80;;
13014;SDS011;6573;57.696;11.950;2022-08-07T06:16:10;5.93;;;2.70;;
13014;SDS011;6573;57.696;11.950;2022-08-07T06:18:43;10.90;;;3.03;;
13014;SDS011;6573;57.696;11.950;2022-08-07T06:21:21;7.07;;;3.00;;
13014;SDS011;6573;57.696;11.950;2022-08-07T06:24:12;6.33;;;2.60;;
13014;SDS011;6573;57.696;11.950;2022-08-07T06:27:01;11.40;;;2.50;;
13014;SDS011;6573;57.696;11.950;2022-08-07T06:29:35;6.33;;;2.50;;
13014;SDS011;6573;57.696;11.950;2022-08-07T06:32:08;6.53;;;2.60;;
13014;SDS011;6573;57.696;11.950;2022-08-07T06:34:43;5.03;;;3.03;;
13014;SDS011;6573;57.696;11.950;2022-08-07T06:37:12;4.07;;;2.40;;
13014;SDS011;6573;57.696;11.950;2022-08-07T06:39:47;6.20;;;2.87;;
13014;SDS011;6573;57.696;11.950;2022-08-07T06:42:38;4.37;;;3.03;;
13014;SDS011;6573;57.696;11.950;2022-08-07T06:45:12;8.03;;;2.60;;
13014;SDS011;6573;57.696;11.950;2022-08-07T06:47:46;6.07;;;2.70;;
13014;SDS011;6573;57.696;11.950;2022-08-07T06:50:24;5.63;;;2.57;;
13014;SDS011;6573;57.696;11.950;2022-08-07T06:52:55;4.70;;;2.87;;
13014;SDS011;6573;57.696;11.950;2022-08-07T06:55:31;7.80;;;3.20;;
13014;SDS011;6573;57.696;11.950;2022-08-07T06:58:23;9.07;;;4.20;;
13014;SDS011;6573;57.696;11.950;2022-08-07T07:00:57;6.53;;;3.70;;
13014;SDS011;6573;57.696;11.950;2022-08-07T07:03:29;9.30;;;4.30;;
13014;SDS011;6573;57.696;11.950;2022-08-07T07:06:15;11.60;;;5.60;;
13014;SDS011;6573;57.696;11.950;2022-08-07T07:08:49;5.23;;;4.57;;
13014;SDS011;6573;57.696;11.950;2022-08-07T07:11:34;10.00;;;4.80;;
13014;SDS011;6573;57.696;11.950;2022-08-07T07:14:24;8.20;;;5.97;;
13014;SDS011;6573;57.696;11.950;2022-08-07T07:16:56;11.27;;;6.20;;
13014;SDS011;6573;57.696;11.950;2022-08-07T07:19:42;8.50;;;5.80;;
13014;SDS011;6573;57.696;11.950;2022-08-07T07:22:24;11.13;;;6.23;;
13014;SDS011;6573;57.696;11.950;2022-08-07T07:25:16;10.20;;;6.50;;
13014;SDS011;6573;57.696;11.950;2022-08-07T07:28:10;10.37;;;5.87;;
13014;SDS011;6573;57.696;11.950;2022-08-07T07:31:03;9.87;;;5.50;;
13014;SDS011;6573;57.696;11.950;2022-08-07T07:33:34;11.60;;;6.37;;
13014;SDS011;6573;57.696;11.950;2022-08-07T07:36:05;14.63;;;7.10;;
13014;SDS011;6573;57.696;11.950;2022-08-07T07:38:39;8.63;;;5.80;;
13014;SDS011;6573;57.696;11.950;2022-08-07T07:41:12;10.37;;;5.93;;
13014;SDS011;6573;57.696;11.950;2022-08-07T07:43:48;11.27;;;6.37;;
13014;SDS011;6573;57.696;11.950;2022-08-07T07:46:39;12.83;;;6.77;;
13014;SDS011;6573;57.696;11.950;2022-08-07T07:49:28;11.07;;;6.13;;
13014;SDS011;6573;57.696;11.950;2022-08-07T07:52:21;9.93;;;6.83;;
13014;SDS011;6573;57.696;11.950;2022-08-07T07:54:53;13.13;;;7.00;;
13014;SDS011;6573;57.696;11.950;2022-08-07T07:57:24;11.67;;;7.07;;
13014;SDS011;6573;57.696;11.950;2022-08-07T08:00:16;11.93;;;6.20;;
13014;SDS011;6573;57.696;11.950;2022-08-07T08:02:56;13.53;;;6.80;;
13014;SDS011;6573;57.696;11.950;2022-08-07T08:05:33;11.00;;;7.20;;
13014;SDS011;6573;57.696;11.950;2022-08-07T08:08:20;12.67;;;6.60;;
13014;SDS011;6573;57.696;11.950;2022-08-07T08:11:04;11.27;;;7.03;;
13014;SDS011;6573;57.696;11.950;2022-08-07T08:13:43;11.13;;;6.40;;
13014;SDS011;6573;57.696;11.950;2022-08-07T08:16:25;8.63;;;5.67;;
13014;SDS011;6573;57.696;11.950;2022-08-07T08:19:01;9.57;;;6.37;;
13014;SDS011;6573;57.696;11.950;2022-08-07T08:21:44;7.63;;;5.90;;
13014;SDS011;6573;57.696;11.950;2022-08-07T08:24:35;8.37;;;6.37;;
13014;SDS011;6573;57.696;11.950;2022-08-07T08:27:43;12.53;;;7.27;;
13014;SDS011;6573;57.696;11.950;2022-08-07T08:30:28;10.63;;;7.50;;
13014;SDS011;6573;57.696;11.950;2022-08-07T08:33:02;10.77;;;7.20;;
13014;SDS011;6573;57.696;11.950;2022-08-07T08:35:41;10.77;;;6.53;;
13014;SDS011;6573;57.696;11.950;2022-08-07T08:38:16;10.63;;;7.33;;
13014;SDS011;6573;57.696;11.950;2022-08-07T08:40:56;12.57;;;7.60;;
13014;SDS011;6573;57.696;11.950;2022-08-07T08:43:32;11.70;;;7.47;;
13014;SDS011;6573;57.696;11.950;2022-08-07T08:46:27;11.40;;;7.47;;
13014;SDS011;6573;57.696;11.950;2022-08-07T08:49:05;14.57;;;8.27;;
13014;SDS011;6573;57.696;11.950;2022-08-07T08:51:43;10.40;;;7.30;;
13014;SDS011;6573;57.696;11.950;2022-08-07T08:54:40;12.30;;;6.67;;
13014;SDS011;6573;57.696;11.950;2022-08-07T08:57:17;9.70;;;8.27;;
13014;SDS011;6573;57.696;11.950;2022-08-07T09:00:08;13.70;;;8.90;;
13014;SDS011;6573;57.696;11.950;2022-08-07T09:02:43;9.97;;;8.37;;
13014;SDS011;6573;57.696;11.950;2022-08-07T09:05:31;12.93;;;8.60;;
13014;SDS011;6573;57.696;11.950;2022-08-07T09:08:37;14.87;;;9.77;;
13014;SDS011;6573;57.696;11.950;2022-08-07T09:11:26;12.70;;;9.80;;
13014;SDS011;6573;57.696;11.950;2022-08-07T09:14:23;12.40;;;9.83;;
13014;SDS011;6573;57.696;11.950;2022-08-07T09:17:03;11.60;;;8.87;;
13014;SDS011;6573;57.696;11.950;2022-08-07T09:20:17;15.70;;;9.37;;
13014;SDS011;6573;57.696;11.950;2022-08-07T09:23:26;12.37;;;9.33;;
13014;SDS011;6573;57.696;11.950;2022-08-07T09:26:38;13.97;;;9.70;;
13014;SDS011;6573;57.696;11.950;2022-08-07T09:29:39;13.63;;;10.00;;
13014;SDS011;6573;57.696;11.950;2022-08-07T09:33:00;14.70;;;9.43;;
13014;SDS011;6573;57.696;11.950;2022-08-07T09:39:35;12.37;;;8.57;;
13014;SDS011;6573;57.696;11.950;2022-08-07T09:42:45;9.97;;;8.70;;
13014;SDS011;6573;57.696;11.950;2022-08-07T09:45:50;10.70;;;8.93;;
13014;SDS011;6573;57.696;11.950;2022-08-07T09:48:57;10.07;;;8.90;;
13014;SDS011;6573;57.696;11.950;2022-08-07T09:52:28;12.67;;;9.77;;
13014;SDS011;6573;57.696;11.950;2022-08-07T09:55:28;12.23;;;8.93;;
13014;SDS011;6573;57.696;11.950;2022-08-07T10:01:53;9.87;;;7.30;;
13014;SDS011;6573;57.696;11.950;2022-08-07T10:05:11;9.80;;;7.83;;
13014;SDS011;6573;57.696;11.950;2022-08-07T10:11:52;10.70;;;8.03;;
13014;SDS011;6573;57.696;11.950;2022-08-07T10:15:04;11.00;;;8.67;;
13014;SDS011;6573;57.696;11.950;2022-08-07T10:18:14;14.30;;;10.10;;
13014;SDS011;6573;57.696;11.950;2022-08-07T10:21:22;12.90;;;9.73;;
13014;SDS011;6573;57.696;11.950;2022-08-07T10:24:48;13.33;;;9.00;;
13014;SDS011;6573;57.696;11.950;2022-08-07T10:28:02;9.83;;;7.90;;
13014;SDS011;6573;57.696;11.950;2022-08-07T10:31:04;12.40;;;8.03;;
13014;SDS011;6573;57.696;11.950;2022-08-07T10:34:07;8.93;;;7.77;;
13014;SDS011;6573;57.696;11.950;2022-08-07T10:37:00;11.53;;;8.60;;
13014;SDS011;6573;57.696;11.950;2022-08-07T10:40:09;8.33;;;6.83;;
13014;SDS011;6573;57.696;11.950;2022-08-07T10:46:23;11.50;;;9.10;;
13014;SDS011;6573;57.696;11.950;2022-08-07T10:49:01;13.63;;;9.23;;
13014;SDS011;6573;57.696;11.950;2022-08-07T10:52:04;11.03;;;8.57;;
13014;SDS011;6573;57.696;11.950;2022-08-07T10:54:55;11.50;;;9.67;;
13014;SDS011;6573;57.696;11.950;2022-08-07T10:58:15;11.23;;;9.50;;
13014;SDS011;6573;57.696;11.950;2022-08-07T11:01:06;11.50;;;9.47;;
13014;SDS011;6573;57.696;11.950;2022-08-07T11:04:04;13.70;;;9.63;;
13014;SDS011;6573;57.696;11.950;2022-08-07T11:07:00;12.93;;;10.43;;
13014;SDS011;6573;57.696;11.950;2022-08-07T11:10:12;11.67;;;9.63;;
13014;SDS011;6573;57.696;11.950;2022-08-07T11:12:58;12.70;;;10.50;;
13014;SDS011;6573;57.696;11.950;2022-08-07T11:15:56;14.27;;;8.60;;
13014;SDS011;6573;57.696;11.950;2022-08-07T11:18:52;12.07;;;9.47;;
13014;SDS011;6573;57.696;11.950;2022-08-07T11:22:04;9.93;;;8.07;;
13014;SDS011;6573;57.696;11.950;2022-08-07T11:24:57;11.23;;;9.13;;
13014;SDS011;6573;57.696;11.950;2022-08-07T11:28:00;11.80;;;9.60;;
13014;SDS011;6573;57.696;11.950;2022-08-07T11:30:50;11.73;;;9.67;;
13014;SDS011;6573;57.696;11.950;2022-08-07T11:33:40;11.47;;;8.37;;
13014;SDS011;6573;57.696;11.950;2022-08-07T11:36:33;11.67;;;8.47;;
13014;SDS011;6573;57.696;11.950;2022-08-07T11:39:53;11.77;;;7.80;;
13014;SDS011;6573;57.696;11.950;2022-08-07T11:42:52;8.37;;;7.37;;
13014;SDS011;6573;57.696;11.950;2022-08-07T11:45:33;9.17;;;7.37;;
13014;SDS011;6573;57.696;11.950;2022-08-07T11:48:23;11.23;;;7.50;;
13014;SDS011;6573;57.696;11.950;2022-08-07T11:51:33;9.07;;;7.33;;
13014;SDS011;6573;57.696;11.950;2022-08-07T11:54:40;10.77;;;7.07;;
13014;SDS011;6573;57.696;11.950;2022-08-07T11:57:40;8.27;;;7.37;;
13014;SDS011;6573;57.696;11.950;2022-08-07T12:00:28;8.00;;;7.07;;
13014;SDS011;6573;57.696;11.950;2022-08-07T12:06:37;10.20;;;7.40;;
13014;SDS011;6573;57.696;11.950;2022-08-07T12:09:46;12.53;;;7.37;;
13014;SDS011;6573;57.696;11.950;2022-08-07T12:12:25;9.40;;;7.07;;
13014;SDS011;6573;57.696;11.950;2022-08-07T12:15:11;11.03;;;7.93;;
13014;SDS011;6573;57.696;11.950;2022-08-07T12:18:07;6.67;;;5.50;;
13014;SDS011;6573;57.696;11.950;2022-08-07T12:20:57;7.27;;;6.33;;
13014;SDS011;6573;57.696;11.950;2022-08-07T12:23:48;10.10;;;5.73;;
13014;SDS011;6573;57.696;11.950;2022-08-07T12:26:42;8.67;;;5.97;;
13014;SDS011;6573;57.696;11.950;2022-08-07T12:29:16;8.77;;;6.37;;
13014;SDS011;6573;57.696;11.950;2022-08-07T12:32:08;6.80;;;5.50;;
13014;SDS011;6573;57.696;11.950;2022-08-07T12:34:43;7.53;;;6.00;;
13014;SDS011;6573;57.696;11.950;2022-08-07T12:37:18;7.60;;;5.30;;
13014;SDS011;6573;57.696;11.950;2022-08-07T12:40:09;9.20;;;5.73;;
13014;SDS011;6573;57.696;11.950;2022-08-07T12:43:02;9.00;;;4.90;;
13014;SDS011;6573;57.696;11.950;2022-08-07T12:45:38;7.43;;;5.23;;
13014;SDS011;6573;57.696;11.950;2022-08-07T12:48:22;6.37;;;4.33;;
13014;SDS011;6573;57.696;11.950;2022-08-07T12:51:18;8.77;;;5.03;;
13014;SDS011;6573;57.696;11.950;2022-08-07T12:54:14;12.87;;;5.87;;
13014;SDS011;6573;57.696;11.950;2022-08-07T12:57:03;7.17;;;5.50;;
13014;SDS011;6573;57.696;11.950;2022-08-07T12:59:35;6.43;;;5.47;;
13014;SDS011;6573;57.696;11.950;2022-08-07T13:02:35;8.90;;;6.10;;
13014;SDS011;6573;57.696;11.950;2022-08-07T13:05:23;8.03;;;5.33;;
13014;SDS011;6573;57.696;11.950;2022-08-07T13:08:35;7.27;;;6.00;;
13014;SDS011;6573;57.696;11.950;2022-08-07T13:11:23;6.87;;;4.90;;
13014;SDS011;6573;57.696;11.950;2022-08-07T13:14:28;6.67;;;4.83;;
13014;SDS011;6573;57.696;11.950;2022-08-07T13:17:19;5.87;;;4.97;;
13014;SDS011;6573;57.696;11.950;2022-08-07T13:20:08;5.07;;;4.57;;
13014;SDS011;6573;57.696;11.950;2022-08-07T13:22:58;6.00;;;4.77;;
13014;SDS011;6573;57.696;11.950;2022-08-07T13:25:55;5.97;;;5.13;;
13014;SDS011;6573;57.696;11.950;2022-08-07T13:28:37;6.20;;;5.20;;
13014;SDS011;6573;57.696;11.950;2022-08-07T13:31:13;8.00;;;5.73;;
13014;SDS011;6573;57.696;11.950;2022-08-07T13:33:49;8.03;;;5.40;;
13014;SDS011;6573;57.696;11.950;2022-08-07T13:36:48;5.83;;;5.23;;
13014;SDS011;6573;57.696;11.950;2022-08-07T13:39:32;7.17;;;4.93;;
13014;SDS011;6573;57.696;11.950;2022-08-07T13:42:27;6.03;;;5.27;;
13014;SDS011;6573;57.696;11.950;2022-08-07T13:45:08;6.30;;;5.23;;
13014;SDS011;6573;57.696;11.950;2022-08-07T13:47:58;6.07;;;5.33;;
13014;SDS011;6573;57.696;11.950;2022-08-07T13:50:37;8.10;;;5.40;;
13014;SDS011;6573;57.696;11.950;2022-08-07T13:53:27;9.13;;;5.43;;
13014;SDS011;6573;57.696;11.950;2022-08-07T13:56:25;5.83;;;5.23;;
13014;SDS011;6573;57.696;11.950;2022-08-07T13:59:06;7.20;;;5.27;;
13014;SDS011;6573;57.696;11.950;2022-08-07T14:01:53;5.97;;;5.27;;
13014;SDS011;6573;57.696;11.950;2022-08-07T14:04:43;6.00;;;4.93;;
13014;SDS011;6573;57.696;11.950;2022-08-07T14:07:22;7.93;;;5.77;;
13014;SDS011;6573;57.696;11.950;2022-08-07T14:10:20;7.00;;;5.63;;
13014;SDS011;6573;57.696;11.950;2022-08-07T14:12:58;7.43;;;5.77;;
13014;SDS011;6573;57.696;11.950;2022-08-07T14:15:30;7.87;;;6.23;;
13014;SDS011;6573;57.696;11.950;2022-08-07T14:18:14;7.50;;;5.90;;
13014;SDS011;6573;57.696;11.950;2022-08-07T14:20:58;7.00;;;5.60;;
13014;SDS011;6573;57.696;11.950;2022-08-07T14:23:53;6.50;;;4.87;;
13014;SDS011;6573;57.696;11.950;2022-08-07T14:26:35;7.23;;;5.30;;
13014;SDS011;6573;57.696;11.950;2022-08-07T14:29:18;6.17;;;5.53;;
13014;SDS011;6573;57.696;11.950;2022-08-07T14:32:10;8.53;;;5.53;;
13014;SDS011;6573;57.696;11.950;2022-08-07T14:34:42;7.30;;;5.90;;
13014;SDS011;6573;57.696;11.950;2022-08-07T14:37:13;7.90;;;5.90;;
13014;SDS011;6573;57.696;11.950;2022-08-07T14:40:02;7.47;;;6.03;;
13014;SDS011;6573;57.696;11.950;2022-08-07T14:42:52;5.77;;;5.10;;
13014;SDS011;6573;57.696;11.950;2022-08-07T14:45:46;6.30;;;5.53;;
13014;SDS011;6573;57.696;11.950;2022-08-07T14:48:20;5.80;;;5.20;;
13014;SDS011;6573;57.696;11.950;2022-08-07T14:51:00;6.63;;;5.83;;
13014;SDS011;6573;57.696;11.950;2022-08-07T14:53:42;6.93;;;5.27;;
13014;SDS011;6573;57.696;11.950;2022-08-07T14:56:34;5.60;;;4.33;;
13014;SDS011;6573;57.696;11.950;2022-08-07T14:59:10;8.13;;;4.43;;
13014;SDS011;6573;57.696;11.950;2022-08-07T15:02:08;9.27;;;5.13;;
13014;SDS011;6573;57.696;11.950;2022-08-07T15:05:00;5.07;;;4.13;;
13014;SDS011;6573;57.696;11.950;2022-08-07T15:07:46;8.27;;;5.40;;
13014;SDS011;6573;57.696;11.950;2022-08-07T15:10:18;6.23;;;4.70;;
13014;SDS011;6573;57.696;11.950;2022-08-07T15:13:00;6.97;;;5.50;;
13014;SDS011;6573;57.696;11.950;2022-08-07T15:15:37;7.80;;;5.77;;
13014;SDS011;6573;57.696;11.950;2022-08-07T15:18:21;5.30;;;4.80;;
13014;SDS011;6573;57.696;11.950;2022-08-07T15:21:20;7.13;;;4.50;;
13014;SDS011;6573;57.696;11.950;2022-08-07T15:24:14;6.43;;;5.33;;
13014;SDS011;6573;57.696;11.950;2022-08-07T15:27:08;5.63;;;4.80;;
13014;SDS011;6573;57.696;11.950;2022-08-07T15:29:43;7.00;;;5.40;;
13014;SDS011;6573;57.696;11.950;2022-08-07T15:32:40;5.90;;;4.60;;
13014;SDS011;6573;57.696;11.950;2022-08-07T15:36:00;7.80;;;4.77;;
13014;SDS011;6573;57.696;11.950;2022-08-07T15:38:33;6.83;;;4.90;;
13014;SDS011;6573;57.696;11.950;2022-08-07T15:41:17;5.93;;;5.33;;
13014;SDS011;6573;57.696;11.950;2022-08-07T15:44:16;7.90;;;5.53;;
13014;SDS011;6573;57.696;11.950;2022-08-07T15:46:53;8.47;;;5.47;;
13014;SDS011;6573;57.696;11.950;2022-08-07T15:49:34;7.33;;;5.10;;
13014;SDS011;6573;57.696;11.950;2022-08-07T15:52:26;8.53;;;6.00;;
13014;SDS011;6573;57.696;11.950;2022-08-07T15:55:03;6.43;;;5.07;;
13014;SDS011;6573;57.696;11.950;2022-08-07T15:57:37;10.87;;;5.13;;
13014;SDS011;6573;57.696;11.950;2022-08-07T16:00:16;7.53;;;4.63;;
13014;SDS011;6573;57.696;11.950;2022-08-07T16:03:00;5.53;;;4.30;;
13014;SDS011;6573;57.696;11.950;2022-08-07T16:05:48;6.67;;;4.87;;
13014;SDS011;6573;57.696;11.950;2022-08-07T16:08:22;5.50;;;5.00;;
13014;SDS011;6573;57.696;11.950;2022-08-07T16:11:04;8.77;;;5.50;;
13014;SDS011;6573;57.696;11.950;2022-08-07T16:13:57;5.53;;;4.63;;
13014;SDS011;6573;57.696;11.950;2022-08-07T16:19:44;6.17;;;5.57;;
13014;SDS011;6573;57.696;11.950;2022-08-07T16:23:23;5.43;;;4.80;;
13014;SDS011;6573;57.696;11.950;2022-08-07T16:26:27;5.37;;;4.87;;
13014;SDS011;6573;57.696;11.950;2022-08-07T16:29:27;5.93;;;4.00;;
13014;SDS011;6573;57.696;11.950;2022-08-07T16:32:37;6.10;;;3.83;;
13014;SDS011;6573;57.696;11.950;2022-08-07T16:35:13;3.30;;;3.00;;
13014;SDS011;6573;57.696;11.950;2022-08-07T16:38:29;3.90;;;3.50;;
13014;SDS011;6573;57.696;11.950;2022-08-07T16:51:37;3.77;;;2.50;;
13014;SDS011;6573;57.696;11.950;2022-08-07T16:54:39;5.30;;;2.70;;
13014;SDS011;6573;57.696;11.950;2022-08-07T16:57:28;3.50;;;2.77;;